sensor_id;sensor_type;location;lat;lon;timestamp;P1;durP1;ratioP1;P2;durP2;ratioP2
18899;SDS011;9582;52.018;6.306;2023-10-09T00:00:33;26.17;;;16.55;;
18899;SDS011;9582;52.018;6.306;2023-10-09T00:03:16;35.20;;;17.40;;
18899;SDS011;9582;52.018;6.306;2023-10-09T00:05:43;38.08;;;17.10;;
18899;SDS011;9582;52.018;6.306;2023-10-09T00:08:12;35.22;;;18.88;;
18899;SDS011;9582;52.018;6.306;2023-10-09T00:10:42;33.35;;;18.58;;
18899;SDS011;9582;52.018;6.306;2023-10-09T00:13:14;30.17;;;16.95;;
18899;SDS011;9582;52.018;6.306;2023-10-09T00:15:42;31.92;;;17.70;;
18899;SDS011;9582;52.018;6.306;2023-10-09T00:18:16;39.33;;;16.88;;
18899;SDS011;9582;52.018;6.306;2023-10-09T00:20:47;31.42;;;16.30;;
18899;SDS011;9582;52.018;6.306;2023-10-09T00:23:19;33.45;;;17.38;;
18899;SDS011;9582;52.018;6.306;2023-10-09T00:25:50;33.70;;;16.83;;
18899;SDS011;9582;52.018;6.306;2023-10-09T00:28:34;26.85;;;16.13;;
18899;SDS011;9582;52.018;6.306;2023-10-09T00:31:04;28.80;;;17.73;;
18899;SDS011;9582;52.018;6.306;2023-10-09T00:33:33;32.90;;;17.13;;
18899;SDS011;9582;52.018;6.306;2023-10-09T00:36:01;29.10;;;17.40;;
18899;SDS011;9582;52.018;6.306;2023-10-09T00:38:34;33.40;;;17.83;;
18899;SDS011;9582;52.018;6.306;2023-10-09T00:41:01;30.58;;;18.60;;
18899;SDS011;9582;52.018;6.306;2023-10-09T00:43:35;37.55;;;18.70;;
18899;SDS011;9582;52.018;6.306;2023-10-09T00:46:04;38.38;;;19.60;;
18899;SDS011;9582;52.018;6.306;2023-10-09T00:48:37;33.40;;;18.88;;
18899;SDS011;9582;52.018;6.306;2023-10-09T00:51:05;35.08;;;19.35;;
18899;SDS011;9582;52.018;6.306;2023-10-09T00:53:41;35.67;;;19.38;;
18899;SDS011;9582;52.018;6.306;2023-10-09T00:56:08;41.97;;;20.05;;
18899;SDS011;9582;52.018;6.306;2023-10-09T00:58:44;36.10;;;20.13;;
18899;SDS011;9582;52.018;6.306;2023-10-09T01:01:15;43.28;;;19.50;;
18899;SDS011;9582;52.018;6.306;2023-10-09T01:03:41;39.75;;;20.83;;
18899;SDS011;9582;52.018;6.306;2023-10-09T01:06:09;38.65;;;19.38;;
18899;SDS011;9582;52.018;6.306;2023-10-09T01:08:46;33.42;;;20.45;;
18899;SDS011;9582;52.018;6.306;2023-10-09T01:11:21;38.08;;;20.88;;
18899;SDS011;9582;52.018;6.306;2023-10-09T01:13:49;38.65;;;20.75;;
18899;SDS011;9582;52.018;6.306;2023-10-09T01:16:23;37.45;;;20.95;;
18899;SDS011;9582;52.018;6.306;2023-10-09T01:18:50;35.13;;;20.58;;
18899;SDS011;9582;52.018;6.306;2023-10-09T01:21:18;37.33;;;20.90;;
18899;SDS011;9582;52.018;6.306;2023-10-09T01:23:50;39.45;;;21.92;;
18899;SDS011;9582;52.018;6.306;2023-10-09T01:26:33;38.90;;;20.80;;
18899;SDS011;9582;52.018;6.306;2023-10-09T01:29:09;36.97;;;21.25;;
18899;SDS011;9582;52.018;6.306;2023-10-09T01:31:39;43.63;;;22.45;;
18899;SDS011;9582;52.018;6.306;2023-10-09T01:34:11;36.25;;;21.15;;
18899;SDS011;9582;52.018;6.306;2023-10-09T01:36:39;44.58;;;22.45;;
18899;SDS011;9582;52.018;6.306;2023-10-09T01:39:08;36.63;;;22.42;;
18899;SDS011;9582;52.018;6.306;2023-10-09T01:41:46;37.08;;;22.80;;
18899;SDS011;9582;52.018;6.306;2023-10-09T01:44:13;40.75;;;22.45;;
18899;SDS011;9582;52.018;6.306;2023-10-09T01:46:41;43.30;;;24.23;;
18899;SDS011;9582;52.018;6.306;2023-10-09T01:49:08;43.60;;;23.35;;
18899;SDS011;9582;52.018;6.306;2023-10-09T01:51:42;44.47;;;23.70;;
18899;SDS011;9582;52.018;6.306;2023-10-09T01:54:10;42.70;;;25.15;;
18899;SDS011;9582;52.018;6.306;2023-10-09T01:56:42;40.13;;;24.33;;
18899;SDS011;9582;52.018;6.306;2023-10-09T01:59:12;39.40;;;23.40;;
18899;SDS011;9582;52.018;6.306;2023-10-09T02:01:41;42.10;;;23.98;;
18899;SDS011;9582;52.018;6.306;2023-10-09T02:04:13;41.90;;;25.08;;
18899;SDS011;9582;52.018;6.306;2023-10-09T02:06:45;43.70;;;24.35;;
18899;SDS011;9582;52.018;6.306;2023-10-09T02:09:18;42.92;;;24.83;;
18899;SDS011;9582;52.018;6.306;2023-10-09T02:11:52;43.75;;;24.05;;
18899;SDS011;9582;52.018;6.306;2023-10-09T02:14:18;40.95;;;25.80;;
18899;SDS011;9582;52.018;6.306;2023-10-09T02:16:50;37.47;;;23.58;;
18899;SDS011;9582;52.018;6.306;2023-10-09T02:19:29;40.42;;;24.10;;
18899;SDS011;9582;52.018;6.306;2023-10-09T02:21:59;41.63;;;23.52;;
18899;SDS011;9582;52.018;6.306;2023-10-09T02:24:38;43.85;;;24.10;;
18899;SDS011;9582;52.018;6.306;2023-10-09T02:27:14;40.15;;;23.50;;
18899;SDS011;9582;52.018;6.306;2023-10-09T02:29:45;38.72;;;23.73;;
18899;SDS011;9582;52.018;6.306;2023-10-09T02:32:12;38.22;;;23.95;;
18899;SDS011;9582;52.018;6.306;2023-10-09T02:34:50;40.97;;;24.67;;
18899;SDS011;9582;52.018;6.306;2023-10-09T02:37:19;37.60;;;23.42;;
18899;SDS011;9582;52.018;6.306;2023-10-09T02:39:49;41.38;;;24.25;;
18899;SDS011;9582;52.018;6.306;2023-10-09T02:42:17;38.28;;;24.23;;
18899;SDS011;9582;52.018;6.306;2023-10-09T02:44:49;39.90;;;23.83;;
18899;SDS011;9582;52.018;6.306;2023-10-09T02:47:17;41.38;;;25.45;;
18899;SDS011;9582;52.018;6.306;2023-10-09T02:49:50;40.38;;;24.77;;
18899;SDS011;9582;52.018;6.306;2023-10-09T02:52:18;43.47;;;24.50;;
18899;SDS011;9582;52.018;6.306;2023-10-09T02:54:51;39.13;;;25.00;;
18899;SDS011;9582;52.018;6.306;2023-10-09T02:57:25;43.00;;;25.27;;
18899;SDS011;9582;52.018;6.306;2023-10-09T03:00:01;41.40;;;24.70;;
18899;SDS011;9582;52.018;6.306;2023-10-09T03:02:33;41.47;;;24.27;;
18899;SDS011;9582;52.018;6.306;2023-10-09T03:05:01;38.95;;;24.83;;
18899;SDS011;9582;52.018;6.306;2023-10-09T03:07:28;40.60;;;24.20;;
18899;SDS011;9582;52.018;6.306;2023-10-09T03:09:56;38.20;;;24.02;;
18899;SDS011;9582;52.018;6.306;2023-10-09T03:12:22;34.78;;;23.77;;
18899;SDS011;9582;52.018;6.306;2023-10-09T03:14:52;40.20;;;25.52;;
18899;SDS011;9582;52.018;6.306;2023-10-09T03:17:23;40.53;;;24.50;;
18899;SDS011;9582;52.018;6.306;2023-10-09T03:19:50;37.72;;;24.33;;
18899;SDS011;9582;52.018;6.306;2023-10-09T03:22:16;40.10;;;25.17;;
18899;SDS011;9582;52.018;6.306;2023-10-09T03:24:43;38.88;;;24.13;;
18899;SDS011;9582;52.018;6.306;2023-10-09T03:27:12;36.08;;;24.48;;
18899;SDS011;9582;52.018;6.306;2023-10-09T03:29:41;35.38;;;24.38;;
18899;SDS011;9582;52.018;6.306;2023-10-09T03:32:14;38.28;;;26.25;;
18899;SDS011;9582;52.018;6.306;2023-10-09T03:34:40;36.13;;;24.10;;
18899;SDS011;9582;52.018;6.306;2023-10-09T03:37:08;35.55;;;24.50;;
18899;SDS011;9582;52.018;6.306;2023-10-09T03:39:47;38.70;;;24.70;;
18899;SDS011;9582;52.018;6.306;2023-10-09T03:42:17;35.47;;;23.05;;
18899;SDS011;9582;52.018;6.306;2023-10-09T03:44:45;35.03;;;24.52;;
18899;SDS011;9582;52.018;6.306;2023-10-09T03:47:17;39.78;;;25.77;;
18899;SDS011;9582;52.018;6.306;2023-10-09T03:49:47;37.30;;;23.90;;
18899;SDS011;9582;52.018;6.306;2023-10-09T03:52:16;33.05;;;24.50;;
18899;SDS011;9582;52.018;6.306;2023-10-09T03:54:43;38.22;;;24.80;;
18899;SDS011;9582;52.018;6.306;2023-10-09T03:57:11;35.53;;;24.08;;
18899;SDS011;9582;52.018;6.306;2023-10-09T03:59:40;34.78;;;24.13;;
18899;SDS011;9582;52.018;6.306;2023-10-09T04:02:07;35.05;;;24.92;;
18899;SDS011;9582;52.018;6.306;2023-10-09T04:04:34;34.17;;;24.15;;
18899;SDS011;9582;52.018;6.306;2023-10-09T04:07:01;34.15;;;24.00;;
18899;SDS011;9582;52.018;6.306;2023-10-09T04:09:27;37.53;;;22.90;;
18899;SDS011;9582;52.018;6.306;2023-10-09T04:12:01;33.25;;;23.30;;
18899;SDS011;9582;52.018;6.306;2023-10-09T04:14:47;38.20;;;24.05;;
18899;SDS011;9582;52.018;6.306;2023-10-09T04:17:20;35.88;;;23.60;;
18899;SDS011;9582;52.018;6.306;2023-10-09T04:19:58;34.60;;;24.23;;
18899;SDS011;9582;52.018;6.306;2023-10-09T04:22:42;32.00;;;23.13;;
18899;SDS011;9582;52.018;6.306;2023-10-09T04:25:15;37.58;;;22.38;;
18899;SDS011;9582;52.018;6.306;2023-10-09T04:27:50;33.58;;;23.98;;
18899;SDS011;9582;52.018;6.306;2023-10-09T04:30:19;33.00;;;22.35;;
18899;SDS011;9582;52.018;6.306;2023-10-09T04:32:48;34.70;;;22.08;;
18899;SDS011;9582;52.018;6.306;2023-10-09T04:35:15;33.78;;;23.38;;
18899;SDS011;9582;52.018;6.306;2023-10-09T04:37:51;30.48;;;21.60;;
18899;SDS011;9582;52.018;6.306;2023-10-09T04:40:25;32.95;;;22.13;;
18899;SDS011;9582;52.018;6.306;2023-10-09T04:43:06;35.55;;;23.02;;
18899;SDS011;9582;52.018;6.306;2023-10-09T04:45:36;29.33;;;21.77;;
18899;SDS011;9582;52.018;6.306;2023-10-09T04:48:32;30.60;;;22.00;;
18899;SDS011;9582;52.018;6.306;2023-10-09T04:51:02;31.58;;;22.17;;
18899;SDS011;9582;52.018;6.306;2023-10-09T04:53:46;31.88;;;22.02;;
18899;SDS011;9582;52.018;6.306;2023-10-09T04:56:20;29.23;;;21.73;;
18899;SDS011;9582;52.018;6.306;2023-10-09T04:58:49;28.33;;;20.80;;
18899;SDS011;9582;52.018;6.306;2023-10-09T05:01:29;28.02;;;20.77;;
18899;SDS011;9582;52.018;6.306;2023-10-09T05:04:08;30.17;;;20.13;;
18899;SDS011;9582;52.018;6.306;2023-10-09T05:06:52;28.65;;;20.65;;
18899;SDS011;9582;52.018;6.306;2023-10-09T05:09:21;27.38;;;20.70;;
18899;SDS011;9582;52.018;6.306;2023-10-09T05:11:48;32.88;;;22.05;;
18899;SDS011;9582;52.018;6.306;2023-10-09T05:14:34;30.02;;;21.45;;
18899;SDS011;9582;52.018;6.306;2023-10-09T05:17:12;32.17;;;21.35;;
18899;SDS011;9582;52.018;6.306;2023-10-09T05:19:42;29.65;;;22.13;;
18899;SDS011;9582;52.018;6.306;2023-10-09T05:22:19;31.67;;;21.33;;
18899;SDS011;9582;52.018;6.306;2023-10-09T05:25:01;29.42;;;21.70;;
18899;SDS011;9582;52.018;6.306;2023-10-09T05:27:39;30.83;;;21.35;;
18899;SDS011;9582;52.018;6.306;2023-10-09T05:30:15;29.65;;;21.20;;
18899;SDS011;9582;52.018;6.306;2023-10-09T05:32:56;30.95;;;20.15;;
18899;SDS011;9582;52.018;6.306;2023-10-09T05:35:44;28.38;;;21.58;;
18899;SDS011;9582;52.018;6.306;2023-10-09T05:38:30;29.83;;;21.33;;
18899;SDS011;9582;52.018;6.306;2023-10-09T05:40:56;30.15;;;20.83;;
18899;SDS011;9582;52.018;6.306;2023-10-09T05:43:42;27.88;;;20.05;;
18899;SDS011;9582;52.018;6.306;2023-10-09T05:46:26;29.75;;;20.67;;
18899;SDS011;9582;52.018;6.306;2023-10-09T05:49:02;27.77;;;20.85;;
18899;SDS011;9582;52.018;6.306;2023-10-09T05:51:34;27.20;;;20.48;;
18899;SDS011;9582;52.018;6.306;2023-10-09T05:54:18;28.95;;;21.95;;
18899;SDS011;9582;52.018;6.306;2023-10-09T05:57:04;32.88;;;21.63;;
18899;SDS011;9582;52.018;6.306;2023-10-09T05:59:48;30.38;;;21.35;;
18899;SDS011;9582;52.018;6.306;2023-10-09T06:02:36;27.58;;;21.42;;
18899;SDS011;9582;52.018;6.306;2023-10-09T06:05:22;30.20;;;21.95;;
18899;SDS011;9582;52.018;6.306;2023-10-09T06:08:07;27.55;;;21.40;;
18899;SDS011;9582;52.018;6.306;2023-10-09T06:10:38;31.52;;;21.75;;
18899;SDS011;9582;52.018;6.306;2023-10-09T06:13:07;29.23;;;20.75;;
18899;SDS011;9582;52.018;6.306;2023-10-09T06:15:54;27.88;;;20.13;;
18899;SDS011;9582;52.018;6.306;2023-10-09T06:18:45;33.13;;;21.10;;
18899;SDS011;9582;52.018;6.306;2023-10-09T06:21:21;31.13;;;20.65;;
18899;SDS011;9582;52.018;6.306;2023-10-09T06:24:06;27.40;;;20.73;;
18899;SDS011;9582;52.018;6.306;2023-10-09T06:26:41;29.98;;;20.30;;
18899;SDS011;9582;52.018;6.306;2023-10-09T06:29:17;30.52;;;20.05;;
18899;SDS011;9582;52.018;6.306;2023-10-09T06:31:59;28.02;;;20.38;;
18899;SDS011;9582;52.018;6.306;2023-10-09T06:34:41;31.20;;;20.17;;
18899;SDS011;9582;52.018;6.306;2023-10-09T06:37:11;30.83;;;19.92;;
18899;SDS011;9582;52.018;6.306;2023-10-09T06:39:59;27.25;;;20.30;;
18899;SDS011;9582;52.018;6.306;2023-10-09T06:42:44;30.23;;;20.23;;
18899;SDS011;9582;52.018;6.306;2023-10-09T06:45:18;27.98;;;20.05;;
18899;SDS011;9582;52.018;6.306;2023-10-09T06:47:46;30.60;;;20.48;;
18899;SDS011;9582;52.018;6.306;2023-10-09T06:50:21;31.27;;;19.48;;
18899;SDS011;9582;52.018;6.306;2023-10-09T06:52:52;33.00;;;20.23;;
18899;SDS011;9582;52.018;6.306;2023-10-09T06:55:39;29.52;;;19.70;;
18899;SDS011;9582;52.018;6.306;2023-10-09T06:58:14;32.75;;;20.60;;
18899;SDS011;9582;52.018;6.306;2023-10-09T07:00:47;30.38;;;20.75;;
18899;SDS011;9582;52.018;6.306;2023-10-09T07:03:26;32.78;;;21.00;;
18899;SDS011;9582;52.018;6.306;2023-10-09T07:06:02;31.73;;;19.05;;
18899;SDS011;9582;52.018;6.306;2023-10-09T07:08:36;30.70;;;21.42;;
18899;SDS011;9582;52.018;6.306;2023-10-09T07:11:23;34.72;;;22.15;;
18899;SDS011;9582;52.018;6.306;2023-10-09T07:14:03;26.73;;;20.02;;
18899;SDS011;9582;52.018;6.306;2023-10-09T07:16:31;28.45;;;19.67;;
18899;SDS011;9582;52.018;6.306;2023-10-09T07:19:03;25.77;;;19.45;;
18899;SDS011;9582;52.018;6.306;2023-10-09T07:21:50;31.98;;;19.40;;
18899;SDS011;9582;52.018;6.306;2023-10-09T07:24:20;28.98;;;19.42;;
18899;SDS011;9582;52.018;6.306;2023-10-09T07:27:03;25.38;;;19.23;;
18899;SDS011;9582;52.018;6.306;2023-10-09T07:29:35;30.70;;;19.63;;
18899;SDS011;9582;52.018;6.306;2023-10-09T07:32:12;28.05;;;19.65;;
18899;SDS011;9582;52.018;6.306;2023-10-09T07:34:45;27.38;;;19.83;;
18899;SDS011;9582;52.018;6.306;2023-10-09T07:37:24;29.75;;;19.73;;
18899;SDS011;9582;52.018;6.306;2023-10-09T07:39:57;26.98;;;19.35;;
18899;SDS011;9582;52.018;6.306;2023-10-09T07:42:23;31.00;;;19.98;;
18899;SDS011;9582;52.018;6.306;2023-10-09T07:44:59;24.25;;;18.80;;
18899;SDS011;9582;52.018;6.306;2023-10-09T07:47:37;28.70;;;19.73;;
18899;SDS011;9582;52.018;6.306;2023-10-09T07:50:26;28.83;;;19.77;;
18899;SDS011;9582;52.018;6.306;2023-10-09T07:53:03;25.55;;;18.92;;
18899;SDS011;9582;52.018;6.306;2023-10-09T07:55:44;26.77;;;19.77;;
18899;SDS011;9582;52.018;6.306;2023-10-09T07:58:19;26.40;;;18.65;;
18899;SDS011;9582;52.018;6.306;2023-10-09T08:00:50;29.75;;;19.10;;
18899;SDS011;9582;52.018;6.306;2023-10-09T08:03:46;26.42;;;19.30;;
18899;SDS011;9582;52.018;6.306;2023-10-09T08:06:22;29.92;;;19.35;;
18899;SDS011;9582;52.018;6.306;2023-10-09T08:09:04;28.70;;;18.60;;
18899;SDS011;9582;52.018;6.306;2023-10-09T08:11:53;28.02;;;19.55;;
18899;SDS011;9582;52.018;6.306;2023-10-09T08:14:38;29.65;;;19.60;;
18899;SDS011;9582;52.018;6.306;2023-10-09T08:17:13;28.98;;;19.00;;
18899;SDS011;9582;52.018;6.306;2023-10-09T08:19:42;29.58;;;20.30;;
18899;SDS011;9582;52.018;6.306;2023-10-09T08:22:23;27.75;;;19.50;;
18899;SDS011;9582;52.018;6.306;2023-10-09T08:25:17;30.65;;;20.38;;
18899;SDS011;9582;52.018;6.306;2023-10-09T08:27:53;32.08;;;22.15;;
18899;SDS011;9582;52.018;6.306;2023-10-09T08:30:20;30.15;;;21.20;;
18899;SDS011;9582;52.018;6.306;2023-10-09T08:33:09;27.42;;;20.23;;
18899;SDS011;9582;52.018;6.306;2023-10-09T08:35:55;30.10;;;21.70;;
18899;SDS011;9582;52.018;6.306;2023-10-09T08:38:27;27.65;;;19.63;;
18899;SDS011;9582;52.018;6.306;2023-10-09T08:40:58;32.78;;;20.35;;
18899;SDS011;9582;52.018;6.306;2023-10-09T08:43:42;29.35;;;19.55;;
18899;SDS011;9582;52.018;6.306;2023-10-09T08:46:15;28.17;;;18.40;;
18899;SDS011;9582;52.018;6.306;2023-10-09T08:48:45;23.00;;;18.02;;
18899;SDS011;9582;52.018;6.306;2023-10-09T08:51:13;27.95;;;18.50;;
18899;SDS011;9582;52.018;6.306;2023-10-09T08:53:41;24.35;;;16.50;;
18899;SDS011;9582;52.018;6.306;2023-10-09T08:56:10;22.98;;;16.20;;
18899;SDS011;9582;52.018;6.306;2023-10-09T08:58:40;25.30;;;16.80;;
18899;SDS011;9582;52.018;6.306;2023-10-09T09:01:07;25.17;;;16.42;;
18899;SDS011;9582;52.018;6.306;2023-10-09T09:03:40;23.40;;;17.00;;
18899;SDS011;9582;52.018;6.306;2023-10-09T09:06:08;24.20;;;16.83;;
18899;SDS011;9582;52.018;6.306;2023-10-09T09:08:36;26.42;;;17.25;;
18899;SDS011;9582;52.018;6.306;2023-10-09T09:11:04;23.80;;;17.38;;
18899;SDS011;9582;52.018;6.306;2023-10-09T09:13:41;22.23;;;16.42;;
18899;SDS011;9582;52.018;6.306;2023-10-09T09:16:17;22.08;;;15.32;;
18899;SDS011;9582;52.018;6.306;2023-10-09T09:18:55;24.05;;;15.13;;
18899;SDS011;9582;52.018;6.306;2023-10-09T09:21:28;22.50;;;15.45;;
18899;SDS011;9582;52.018;6.306;2023-10-09T09:23:59;22.65;;;16.52;;
18899;SDS011;9582;52.018;6.306;2023-10-09T09:26:34;21.83;;;16.05;;
18899;SDS011;9582;52.018;6.306;2023-10-09T09:29:03;24.13;;;15.60;;
18899;SDS011;9582;52.018;6.306;2023-10-09T09:31:32;20.23;;;15.30;;
18899;SDS011;9582;52.018;6.306;2023-10-09T09:34:03;22.45;;;14.85;;
18899;SDS011;9582;52.018;6.306;2023-10-09T09:36:37;22.75;;;15.48;;
18899;SDS011;9582;52.018;6.306;2023-10-09T09:39:20;21.45;;;15.40;;
18899;SDS011;9582;52.018;6.306;2023-10-09T09:41:53;21.75;;;14.70;;
18899;SDS011;9582;52.018;6.306;2023-10-09T09:44:22;26.42;;;17.38;;
18899;SDS011;9582;52.018;6.306;2023-10-09T09:46:52;26.52;;;16.23;;
18899;SDS011;9582;52.018;6.306;2023-10-09T09:49:20;23.05;;;16.20;;
18899;SDS011;9582;52.018;6.306;2023-10-09T09:51:48;20.05;;;15.43;;
18899;SDS011;9582;52.018;6.306;2023-10-09T09:54:15;23.33;;;16.02;;
18899;SDS011;9582;52.018;6.306;2023-10-09T09:56:44;21.48;;;14.73;;
18899;SDS011;9582;52.018;6.306;2023-10-09T09:59:16;23.58;;;15.38;;
18899;SDS011;9582;52.018;6.306;2023-10-09T10:01:47;20.95;;;14.68;;
18899;SDS011;9582;52.018;6.306;2023-10-09T10:04:23;22.85;;;14.95;;
18899;SDS011;9582;52.018;6.306;2023-10-09T10:06:53;23.73;;;15.73;;
18899;SDS011;9582;52.018;6.306;2023-10-09T10:09:34;20.27;;;14.40;;
18899;SDS011;9582;52.018;6.306;2023-10-09T10:12:05;25.48;;;15.65;;
18899;SDS011;9582;52.018;6.306;2023-10-09T10:17:22;21.25;;;13.88;;
18899;SDS011;9582;52.018;6.306;2023-10-09T10:20:02;21.25;;;14.90;;
18899;SDS011;9582;52.018;6.306;2023-10-09T10:22:47;19.42;;;13.55;;
18899;SDS011;9582;52.018;6.306;2023-10-09T10:28:18;27.50;;;15.77;;
18899;SDS011;9582;52.018;6.306;2023-10-09T10:31:03;21.58;;;14.50;;
18899;SDS011;9582;52.018;6.306;2023-10-09T10:36:32;20.65;;;14.27;;
18899;SDS011;9582;52.018;6.306;2023-10-09T10:39:00;19.40;;;14.20;;
18899;SDS011;9582;52.018;6.306;2023-10-09T10:41:34;18.77;;;14.25;;
18899;SDS011;9582;52.018;6.306;2023-10-09T10:44:17;24.10;;;14.77;;
18899;SDS011;9582;52.018;6.306;2023-10-09T10:47:03;20.95;;;14.05;;
18899;SDS011;9582;52.018;6.306;2023-10-09T10:49:42;21.10;;;14.30;;
18899;SDS011;9582;52.018;6.306;2023-10-09T10:52:19;22.05;;;14.88;;
18899;SDS011;9582;52.018;6.306;2023-10-09T10:54:46;18.27;;;13.80;;
18899;SDS011;9582;52.018;6.306;2023-10-09T10:57:34;21.90;;;14.10;;
18899;SDS011;9582;52.018;6.306;2023-10-09T11:00:19;18.60;;;14.30;;
18899;SDS011;9582;52.018;6.306;2023-10-09T11:03:04;26.00;;;14.25;;
18899;SDS011;9582;52.018;6.306;2023-10-09T11:05:42;21.05;;;14.00;;
18899;SDS011;9582;52.018;6.306;2023-10-09T11:08:15;20.63;;;13.60;;
18899;SDS011;9582;52.018;6.306;2023-10-09T11:10:47;18.30;;;12.25;;
18899;SDS011;9582;52.018;6.306;2023-10-09T11:13:22;20.33;;;13.38;;
18899;SDS011;9582;52.018;6.306;2023-10-09T11:15:59;17.83;;;12.02;;
18899;SDS011;9582;52.018;6.306;2023-10-09T11:18:40;18.15;;;12.27;;
18899;SDS011;9582;52.018;6.306;2023-10-09T11:21:13;18.95;;;11.10;;
18899;SDS011;9582;52.018;6.306;2023-10-09T11:23:57;15.48;;;11.27;;
18899;SDS011;9582;52.018;6.306;2023-10-09T11:26:24;17.17;;;10.45;;
18899;SDS011;9582;52.018;6.306;2023-10-09T11:29:05;13.25;;;9.85;;
18899;SDS011;9582;52.018;6.306;2023-10-09T11:32:02;13.75;;;8.95;;
18899;SDS011;9582;52.018;6.306;2023-10-09T11:34:30;14.55;;;10.18;;
18899;SDS011;9582;52.018;6.306;2023-10-09T11:36:58;18.50;;;11.05;;
18899;SDS011;9582;52.018;6.306;2023-10-09T11:39:25;15.60;;;9.55;;
18899;SDS011;9582;52.018;6.306;2023-10-09T11:42:16;12.82;;;9.75;;
18899;SDS011;9582;52.018;6.306;2023-10-09T11:45:00;17.02;;;8.57;;
18899;SDS011;9582;52.018;6.306;2023-10-09T11:47:35;12.35;;;8.15;;
18899;SDS011;9582;52.018;6.306;2023-10-09T11:50:00;14.35;;;7.97;;
18899;SDS011;9582;52.018;6.306;2023-10-09T11:52:58;11.13;;;7.65;;
18899;SDS011;9582;52.018;6.306;2023-10-09T11:55:45;11.43;;;7.95;;
18899;SDS011;9582;52.018;6.306;2023-10-09T11:58:14;12.85;;;7.53;;
18899;SDS011;9582;52.018;6.306;2023-10-09T12:00:47;11.43;;;7.28;;
18899;SDS011;9582;52.018;6.306;2023-10-09T12:03:17;14.80;;;7.63;;
18899;SDS011;9582;52.018;6.306;2023-10-09T12:05:48;12.93;;;7.85;;
18899;SDS011;9582;52.018;6.306;2023-10-09T12:08:15;10.18;;;7.30;;
18899;SDS011;9582;52.018;6.306;2023-10-09T12:10:42;14.50;;;7.95;;
18899;SDS011;9582;52.018;6.306;2023-10-09T12:13:09;11.63;;;7.40;;
18899;SDS011;9582;52.018;6.306;2023-10-09T12:15:35;11.23;;;7.70;;
18899;SDS011;9582;52.018;6.306;2023-10-09T12:18:05;10.75;;;7.32;;
18899;SDS011;9582;52.018;6.306;2023-10-09T12:20:41;12.30;;;7.22;;
18899;SDS011;9582;52.018;6.306;2023-10-09T12:23:15;10.70;;;7.70;;
18899;SDS011;9582;52.018;6.306;2023-10-09T12:25:41;16.60;;;7.40;;
18899;SDS011;9582;52.018;6.306;2023-10-09T12:28:10;14.10;;;7.40;;
18899;SDS011;9582;52.018;6.306;2023-10-09T12:30:38;10.90;;;7.13;;
18899;SDS011;9582;52.018;6.306;2023-10-09T12:33:05;12.40;;;7.25;;
18899;SDS011;9582;52.018;6.306;2023-10-09T12:35:35;14.93;;;7.90;;
18899;SDS011;9582;52.018;6.306;2023-10-09T12:38:04;12.65;;;7.15;;
18899;SDS011;9582;52.018;6.306;2023-10-09T12:40:34;13.93;;;7.22;;
18899;SDS011;9582;52.018;6.306;2023-10-09T12:43:01;14.23;;;7.72;;
18899;SDS011;9582;52.018;6.306;2023-10-09T12:45:28;15.45;;;7.68;;
18899;SDS011;9582;52.018;6.306;2023-10-09T12:47:57;14.05;;;7.25;;
18899;SDS011;9582;52.018;6.306;2023-10-09T12:50:25;12.27;;;6.82;;
18899;SDS011;9582;52.018;6.306;2023-10-09T12:52:54;12.25;;;7.03;;
18899;SDS011;9582;52.018;6.306;2023-10-09T12:55:23;15.38;;;7.05;;
18899;SDS011;9582;52.018;6.306;2023-10-09T12:57:57;12.40;;;7.18;;
18899;SDS011;9582;52.018;6.306;2023-10-09T13:00:31;8.80;;;6.20;;
18899;SDS011;9582;52.018;6.306;2023-10-09T13:02:58;11.23;;;6.50;;
18899;SDS011;9582;52.018;6.306;2023-10-09T13:05:27;12.82;;;7.07;;
18899;SDS011;9582;52.018;6.306;2023-10-09T13:07:53;14.60;;;6.80;;
18899;SDS011;9582;52.018;6.306;2023-10-09T13:10:23;14.82;;;7.28;;
18899;SDS011;9582;52.018;6.306;2023-10-09T13:12:49;10.75;;;6.40;;
18899;SDS011;9582;52.018;6.306;2023-10-09T13:15:21;12.52;;;7.25;;
18899;SDS011;9582;52.018;6.306;2023-10-09T13:17:46;11.75;;;6.80;;
18899;SDS011;9582;52.018;6.306;2023-10-09T13:20:13;13.15;;;7.00;;
18899;SDS011;9582;52.018;6.306;2023-10-09T13:22:41;10.57;;;6.70;;
18899;SDS011;9582;52.018;6.306;2023-10-09T13:25:08;15.25;;;6.38;;
18899;SDS011;9582;52.018;6.306;2023-10-09T13:27:42;11.93;;;6.60;;
18899;SDS011;9582;52.018;6.306;2023-10-09T13:30:16;10.23;;;5.90;;
18899;SDS011;9582;52.018;6.306;2023-10-09T13:32:47;12.77;;;7.15;;
18899;SDS011;9582;52.018;6.306;2023-10-09T13:35:15;12.30;;;7.28;;
18899;SDS011;9582;52.018;6.306;2023-10-09T13:37:43;13.15;;;7.03;;
18899;SDS011;9582;52.018;6.306;2023-10-09T13:40:19;14.40;;;7.20;;
18899;SDS011;9582;52.018;6.306;2023-10-09T13:42:54;12.25;;;7.20;;
18899;SDS011;9582;52.018;6.306;2023-10-09T13:45:24;13.38;;;6.70;;
18899;SDS011;9582;52.018;6.306;2023-10-09T13:47:53;13.70;;;6.82;;
18899;SDS011;9582;52.018;6.306;2023-10-09T13:50:23;12.93;;;6.57;;
18899;SDS011;9582;52.018;6.306;2023-10-09T13:52:54;12.57;;;7.00;;
18899;SDS011;9582;52.018;6.306;2023-10-09T13:55:21;11.02;;;6.13;;
18899;SDS011;9582;52.018;6.306;2023-10-09T13:57:48;9.95;;;6.28;;
18899;SDS011;9582;52.018;6.306;2023-10-09T14:00:16;13.65;;;6.45;;
18899;SDS011;9582;52.018;6.306;2023-10-09T14:02:57;13.43;;;6.13;;
18899;SDS011;9582;52.018;6.306;2023-10-09T14:05:26;11.65;;;6.28;;
18899;SDS011;9582;52.018;6.306;2023-10-09T14:07:53;11.82;;;6.20;;
18899;SDS011;9582;52.018;6.306;2023-10-09T14:10:25;9.27;;;6.55;;
18899;SDS011;9582;52.018;6.306;2023-10-09T14:12:55;11.38;;;6.70;;
18899;SDS011;9582;52.018;6.306;2023-10-09T14:15:23;9.93;;;6.78;;
18899;SDS011;9582;52.018;6.306;2023-10-09T14:17:49;11.75;;;6.50;;
18899;SDS011;9582;52.018;6.306;2023-10-09T14:20:21;12.27;;;6.45;;
18899;SDS011;9582;52.018;6.306;2023-10-09T14:22:56;9.63;;;6.40;;
18899;SDS011;9582;52.018;6.306;2023-10-09T14:25:31;9.90;;;5.63;;
18899;SDS011;9582;52.018;6.306;2023-10-09T14:27:58;12.73;;;6.20;;
18899;SDS011;9582;52.018;6.306;2023-10-09T14:30:25;10.52;;;5.88;;
18899;SDS011;9582;52.018;6.306;2023-10-09T14:32:58;10.15;;;6.03;;
18899;SDS011;9582;52.018;6.306;2023-10-09T14:35:27;9.98;;;6.20;;
18899;SDS011;9582;52.018;6.306;2023-10-09T14:37:55;16.35;;;6.55;;
18899;SDS011;9582;52.018;6.306;2023-10-09T14:40:22;10.88;;;5.70;;
18899;SDS011;9582;52.018;6.306;2023-10-09T14:42:55;13.45;;;5.90;;
18899;SDS011;9582;52.018;6.306;2023-10-09T14:45:23;10.80;;;5.57;;
18899;SDS011;9582;52.018;6.306;2023-10-09T14:47:52;15.38;;;6.05;;
18899;SDS011;9582;52.018;6.306;2023-10-09T14:50:19;13.90;;;6.65;;
18899;SDS011;9582;52.018;6.306;2023-10-09T14:52:48;11.65;;;6.57;;
18899;SDS011;9582;52.018;6.306;2023-10-09T14:55:15;10.98;;;7.03;;
18899;SDS011;9582;52.018;6.306;2023-10-09T14:57:46;9.77;;;6.63;;
18899;SDS011;9582;52.018;6.306;2023-10-09T15:00:15;12.07;;;7.25;;
18899;SDS011;9582;52.018;6.306;2023-10-09T15:02:48;12.75;;;7.07;;
18899;SDS011;9582;52.018;6.306;2023-10-09T15:05:17;12.13;;;6.88;;
18899;SDS011;9582;52.018;6.306;2023-10-09T15:07:43;13.23;;;6.88;;
18899;SDS011;9582;52.018;6.306;2023-10-09T15:10:10;9.57;;;5.70;;
18899;SDS011;9582;52.018;6.306;2023-10-09T15:12:40;12.07;;;6.55;;
18899;SDS011;9582;52.018;6.306;2023-10-09T15:15:08;11.25;;;6.43;;
18899;SDS011;9582;52.018;6.306;2023-10-09T15:17:38;13.65;;;6.28;;
18899;SDS011;9582;52.018;6.306;2023-10-09T15:20:08;12.32;;;6.53;;
18899;SDS011;9582;52.018;6.306;2023-10-09T15:22:40;11.77;;;6.28;;